Time;durP1;ratioP1;P1;durP2;ratioP2;P2;SDS_P1;SDS_P2;PMS_P1;PMS_P2;Temp;Humidity;BMP_temperature;BMP_pressure;BME280_temperature;BME280_humidity;BME280_pressure;Samples;Min_cycle;Max_cycle;Signal;HPM_P1;HPM_P2
2021/03/08 00:00:53;;;;;;;40.97;17.90;;;;;;;1.44;66.08;99351.22;4848695;29;20037;-79
2021/03/08 00:03:20;;;;;;;44.97;18.95;;;;;;;1.43;66.75;99354.91;4840148;29;20045;-79
2021/03/08 00:05:45;;;;;;;38.78;18.08;;;;;;;1.39;66.36;99346.59;4856910;29;20042;-79
2021/03/08 00:08:12;;;;;;;34.65;17.25;;;;;;;1.38;66.43;99349.44;4840193;29;20159;-80
2021/03/08 00:10:39;;;;;;;31.67;16.38;;;;;;;1.35;66.52;99352.50;4855901;29;20075;-80
2021/03/08 00:13:04;;;;;;;35.72;15.93;;;;;;;1.34;66.50;99350.88;4836103;29;20026;-78
2021/03/08 00:15:30;;;;;;;33.85;17.25;;;;;;;1.31;66.48;99344.19;4851369;29;20443;-78
2021/03/08 00:17:55;;;;;;;37.40;17.90;;;;;;;1.31;66.75;99346.00;4835302;29;20042;-79
2021/03/08 00:20:24;;;;;;;32.90;16.75;;;;;;;1.26;66.86;99330.84;4819364;29;20051;-80
2021/03/08 00:22:50;;;;;;;40.38;18.60;;;;;;;1.27;66.83;99340.38;4802851;29;20041;-79
2021/03/08 00:25:22;;;;;;;40.17;18.75;;;;;;;1.26;66.91;99339.53;4820969;29;20035;-80
2021/03/08 00:27:48;;;;;;;34.78;17.58;;;;;;;1.25;67.09;99335.28;4804255;29;20043;-80
2021/03/08 00:33:55;;;;;;;28.40;15.15;;;;;;;1.25;66.57;99327.38;4802957;29;20141;-81
2021/03/08 00:40:05;;;;;;;29.83;15.32;;;;;;;1.26;66.70;99325.56;5810430;24;20033;-80
2021/03/08 01:10:02;;;;;;;32.72;14.57;;;;;;;1.01;65.85;99270.13;4874992;24;20058;-81
2021/03/08 01:12:31;;;;;;;29.92;13.75;;;;;;;0.94;66.19;99263.06;4851504;29;20050;-80
2021/03/08 01:33:18;;;;;;;19.08;10.44;;;;;;;0.82;67.18;99227.03;4856494;29;20057;-83
2021/03/08 01:35:49;;;;;;;17.98;11.65;;;;;;;0.83;67.10;99228.66;4848108;29;20045;-80
2021/03/08 01:41:38;;;;;;;18.88;10.13;;;;;;;0.81;66.98;99218.31;5500066;24;20067;-80
2021/03/08 02:05:47;;;;;;;20.88;10.63;;;;;;;0.59;67.44;99231.75;4952621;24;20062;-79
2021/03/08 02:11:38;;;;;;;25.17;11.90;;;;;;;0.57;67.48;99222.44;4837150;29;20049;-79
2021/03/08 02:14:39;;;;;;;23.17;11.18;;;;;;;0.56;67.06;99215.56;4832505;29;20484;-78
2021/03/08 02:17:25;;;;;;;23.52;10.48;;;;;;;0.54;67.41;99220.22;4842387;29;20049;-79
2021/03/08 02:20:42;;;;;;;17.63;10.23;;;;;;;0.52;67.46;99223.03;4801320;29;20433;-79
2021/03/08 02:23:07;;;;;;;21.08;10.75;;;;;;;0.50;67.44;99221.63;4808958;29;20061;-79
2021/03/08 02:25:58;;;;;;;21.75;12.77;;;;;;;0.47;67.41;99221.03;4811679;29;20038;-79
2021/03/08 02:56:16;;;;;;;14.98;7.97;;;;;;;0.19;67.15;99225.75;4828756;29;20057;-81
2021/03/08 02:58:48;;;;;;;17.90;8.32;;;;;;;0.13;67.26;99222.88;4811601;29;20104;-79
2021/03/08 03:01:26;;;;;;;14.25;8.70;;;;;;;0.10;67.29;99223.31;4809493;29;20046;-80
2021/03/08 03:03:57;;;;;;;14.13;8.13;;;;;;;0.10;67.40;99222.50;4809344;29;20039;-79
2021/03/08 03:06:28;;;;;;;16.42;8.35;;;;;;;0.10;67.53;99222.50;4810281;29;20414;-78
2021/03/08 03:08:55;;;;;;;14.43;9.30;;;;;;;0.10;68.26;99225.13;4813289;29;20027;-79
2021/03/08 03:11:21;;;;;;;12.70;7.65;;;;;;;0.10;68.19;99219.88;4792954;29;20043;-79
2021/03/08 03:13:49;;;;;;;11.65;8.70;;;;;;;0.10;68.40;99217.25;4794669;29;20061;-79
2021/03/08 03:16:16;;;;;;;15.40;9.27;;;;;;;0.09;68.29;99221.69;4793666;29;20039;-80
2021/03/08 03:18:46;;;;;;;17.83;8.40;;;;;;;0.10;68.40;99223.31;4786959;30;20391;-80
2021/03/08 03:24:24;;;;;;;15.95;8.48;;;;;;;0.12;68.60;99226.56;4886154;24;20092;-81
2021/03/08 03:26:52;;;;;;;16.55;8.45;;;;;;;0.10;68.60;99231.19;4837280;29;20050;-79
2021/03/08 04:25:19;;;;;;;24.20;12.75;;;;;;;-0.17;70.46;99193.59;5436275;24;20038;-83
2021/03/08 04:39:14;;;;;;;21.40;12.55;;;;;;;-0.18;70.45;99190.13;4697275;30;20087;-80
2021/03/08 04:41:40;;;;;;;29.98;12.98;;;;;;;-0.18;70.64;99182.25;4703068;30;20592;-80
2021/03/08 04:48:10;;;;;;;25.58;11.55;;;;;;;-0.13;70.07;99184.28;4716987;30;20143;-82
2021/03/08 05:05:56;;;;;;;31.08;15.57;;;;;;;0.57;69.66;99206.66;4770839;30;20155;-80
2021/03/08 05:08:25;;;;;;;32.20;17.23;;;;;;;0.72;69.14;99204.59;4769091;30;20514;-80
2021/03/08 05:10:52;;;;;;;32.83;16.75;;;;;;;0.91;69.03;99200.25;4773766;30;20059;-80
2021/03/08 05:39:06;;;;;;;31.63;19.77;;;;;;;3.17;61.29;99205.72;4966255;24;20061;-79
2021/03/08 05:42:12;;;;;;;41.58;20.75;;;;;;;3.31;61.13;99208.19;4834425;29;20053;-80
2021/03/08 05:44:50;;;;;;;45.63;19.88;;;;;;;3.43;60.63;99205.56;4862919;29;20042;-79
2021/03/08 05:48:00;;;;;;;34.35;19.02;;;;;;;3.58;60.05;99202.50;4860331;29;20030;-81
2021/03/08 05:50:31;;;;;;;33.85;16.98;;;;;;;3.72;60.12;99211.84;4863416;29;20034;-81
2021/03/08 05:53:18;;;;;;;35.13;18.75;;;;;;;3.85;59.58;99213.50;4847089;29;20034;-78
2021/03/08 05:55:58;;;;;;;32.40;16.67;;;;;;;3.99;59.15;99222.00;4843284;29;20025;-77
2021/03/08 05:58:45;;;;;;;29.35;17.52;;;;;;;4.13;59.42;99214.69;4843524;29;20029;-77
2021/03/08 06:05:09;;;;;;;36.20;19.23;;;;;;;4.39;57.74;99215.25;5049545;24;20425;-79
2021/03/08 06:08:18;;;;;;;49.17;22.55;;;;;;;4.50;57.74;99214.44;4815478;29;20435;-74
2021/03/08 06:11:00;;;;;;;47.80;23.13;;;;;;;4.51;57.41;99202.81;4790878;29;20042;-80
2021/03/08 06:13:28;;;;;;;47.40;23.52;;;;;;;4.49;57.12;99191.63;4825132;29;20031;-80
2021/03/08 06:15:59;;;;;;;47.60;24.02;;;;;;;4.41;57.57;99198.09;5000732;24;20089;-78
2021/03/08 06:18:51;;;;;;;40.38;22.90;;;;;;;4.30;58.52;99198.91;4825335;29;20050;-80
2021/03/08 06:22:00;;;;;;;36.15;19.05;;;;;;;4.28;58.68;99193.84;4826838;29;20031;-83
2021/03/08 06:24:38;;;;;;;36.88;21.52;;;;;;;4.25;59.26;99190.88;4807349;29;20046;-81
2021/03/08 06:27:06;;;;;;;31.60;16.10;;;;;;;4.23;59.56;99195.59;4809462;29;20026;-81
2021/03/08 06:36:21;;;;;;;31.80;18.55;;;;;;;4.25;60.04;99190.88;4964268;24;20762;-81
2021/03/08 06:41:21;;;;;;;37.92;18.02;;;;;;;4.30;60.37;99193.63;5018031;24;20065;-80
2021/03/08 06:43:52;;;;;;;29.05;17.25;;;;;;;4.30;60.01;99197.06;4812779;29;20038;-80
2021/03/08 06:46:18;;;;;;;40.28;20.63;;;;;;;4.37;60.43;99212.84;4811868;29;20034;-79
2021/03/08 06:59:56;;;;;;;29.65;17.23;;;;;;;5.04;62.89;99227.50;5840375;24;20060;31
2021/03/08 07:08:41;;;;;;;20.88;11.38;;;;;;;5.19;57.36;99204.94;5411398;23;20069;-80
2021/03/08 07:11:14;;;;;;;24.60;13.27;;;;;;;5.22;57.88;99213.25;4963558;24;20148;-78
2021/03/08 07:16:45;;;;;;;20.92;11.80;;;;;;;5.24;59.41;99213.81;5065680;24;20070;-78
2021/03/08 07:19:11;;;;;;;20.90;13.32;;;;;;;5.34;57.99;99221.16;4841800;29;20026;-78
2021/03/08 07:21:38;;;;;;;30.20;16.35;;;;;;;5.42;57.72;99218.13;4857118;29;20392;-79
2021/03/08 07:24:16;;;;;;;29.45;14.38;;;;;;;5.44;57.06;99224.00;4843042;29;20030;-77
2021/03/08 07:27:44;;;;;;;26.33;15.60;;;;;;;5.44;56.93;99213.41;4834318;29;20034;-79
2021/03/08 07:30:43;;;;;;;;;;;;;;;5.48;57.56;99219.03;4832497;29;20049;-80
2021/03/08 07:34:05;;;;;;;29.48;14.95;;;;;;;5.55;57.70;99216.22;4836696;29;19946;-83
2021/03/08 07:36:33;;;;;;;26.10;14.02;;;;;;;5.59;56.98;99204.09;4757130;30;20058;-78
2021/03/08 07:39:07;;;;;;;26.67;14.27;;;;;;;5.67;57.84;99206.34;4817599;29;20034;-79
2021/03/08 07:41:32;;;;;;;25.05;14.40;;;;;;;5.81;57.69;99204.22;4812910;29;20477;-79
2021/03/08 07:46:40;;;;;;;30.13;15.38;;;;;;;5.89;56.30;99206.44;4974256;24;20056;-80
2021/03/08 07:49:08;;;;;;;22.52;15.43;;;;;;;5.96;56.61;99190.38;4829637;29;20034;-81
2021/03/08 07:55:15;;;;;;;26.98;17.08;;;;;;;6.12;56.66;99185.34;5006153;23;20085;31
2021/03/08 07:58:03;;;;;;;29.37;17.77;;;;;;;6.23;56.78;99179.91;4769355;29;20077;-79
2021/03/08 08:16:39;;;;;;;28.52;16.40;;;;;;;6.55;55.99;99162.53;5133830;24;20104;-81
2021/03/08 08:19:33;;;;;;;25.63;15.52;;;;;;;6.61;56.12;99158.09;4934010;24;20140;-80
2021/03/08 08:24:35;;;;;;;21.80;14.35;;;;;;;6.76;55.76;99160.94;4858869;24;20421;-78
2021/03/08 08:27:01;;;;;;;22.25;13.43;;;;;;;6.88;56.01;99156.31;4820029;29;20036;-81
2021/03/08 08:29:28;;;;;;;23.88;14.55;;;;;;;6.94;55.24;99151.84;4812327;29;20106;-79
2021/03/08 08:32:05;;;;;;;21.27;13.98;;;;;;;7.04;55.22;99151.13;4816119;29;20073;-81
2021/03/08 08:34:30;;;;;;;16.73;11.63;;;;;;;7.18;53.65;99152.34;4814741;29;20034;-79
2021/03/08 08:37:18;;;;;;;26.60;15.85;;;;;;;7.32;54.61;99143.97;4828287;29;20041;-79
2021/03/08 08:39:53;;;;;;;27.98;14.18;;;;;;;7.31;53.98;99145.03;5142553;24;20044;-80
2021/03/08 08:42:28;;;;;;;21.02;13.05;;;;;;;7.26;53.57;99137.78;5100979;23;20011;-80
2021/03/08 08:45:47;;;;;;;24.83;12.32;;;;;;;7.26;53.39;99134.34;4824398;29;20050;-81
2021/03/08 08:51:18;;;;;;;20.45;12.63;;;;;;;7.15;53.25;99128.94;4965167;24;20070;-81
2021/03/08 09:51:33;;;;;;;20.17;10.77;;;;;;;8.80;48.73;99054.53;4800908;29;20159;-87
2021/03/08 10:14:09;;;;;;;13.80;9.27;;;;;;;9.51;49.03;99034.31;4750702;30;20167;-88
2021/03/08 10:17:36;;;;;;;14.25;7.95;;;;;;;9.60;48.22;99022.00;4734217;30;20049;-88
2021/03/08 10:30:22;;;;;;;12.50;7.45;;;;;;;10.02;47.47;98997.84;4804233;29;20065;-88
2021/03/08 10:33:11;;;;;;;11.88;8.00;;;;;;;10.11;46.71;98998.91;4803308;29;20122;-90
2021/03/08 10:39:01;;;;;;;13.23;7.78;;;;;;;10.28;46.83;98987.03;4804113;29;20041;-87
2021/03/08 10:41:29;;;;;;;12.57;8.20;;;;;;;10.34;46.38;98989.44;4802657;29;20100;-89
2021/03/08 10:43:58;;;;;;;10.90;6.97;;;;;;;10.41;45.25;98979.28;4805286;29;20424;-87
2021/03/08 10:46:34;;;;;;;10.95;7.60;;;;;;;10.49;45.93;98971.75;4804708;29;20042;-80
2021/03/08 10:49:03;;;;;;;12.02;7.45;;;;;;;10.55;46.06;98968.75;4794418;29;20042;-83
2021/03/08 10:51:29;;;;;;;13.52;7.65;;;;;;;10.62;46.52;98964.97;4804462;29;20046;-83
2021/03/08 10:54:12;;;;;;;11.90;8.48;;;;;;;10.71;45.91;98957.94;4804588;29;20065;-84
2021/03/08 10:56:42;;;;;;;14.60;8.65;;;;;;;10.80;45.62;98955.47;4820299;29;20492;-84
2021/03/08 10:59:28;;;;;;;11.90;7.90;;;;;;;10.92;45.52;98952.44;4804245;29;20031;-81
2021/03/08 11:02:05;;;;;;;15.23;8.57;;;;;;;10.97;44.75;98947.84;4799751;29;20493;-76
2021/03/08 11:04:31;;;;;;;11.13;7.47;;;;;;;11.02;45.28;98938.97;4801011;29;20722;-79
2021/03/08 11:06:56;;;;;;;11.40;7.95;;;;;;;11.08;45.15;98942.41;4804988;29;20117;-78
2021/03/08 11:09:30;;;;;;;11.18;6.90;;;;;;;11.12;45.54;98930.88;4811641;29;20038;-83
2021/03/08 11:11:57;;;;;;;10.70;7.35;;;;;;;11.23;45.20;98926.22;4819235;29;20034;-84
2021/03/08 11:14:22;;;;;;;9.70;7.72;;;;;;;11.30;45.17;98925.88;4795964;29;20417;-84
2021/03/08 11:16:55;;;;;;;11.45;7.47;;;;;;;11.32;44.34;98913.78;4819458;29;20042;-81
2021/03/08 11:19:23;;;;;;;11.13;8.15;;;;;;;11.38;44.49;98914.53;4803960;29;20030;-81
2021/03/08 11:22:08;;;;;;;13.18;7.97;;;;;;;11.44;44.36;98912.63;4804542;29;20040;-84
2021/03/08 11:24:42;;;;;;;10.60;7.10;;;;;;;11.49;43.92;98907.97;4803076;29;20053;-82
2021/03/08 11:27:28;;;;;;;11.50;7.13;;;;;;;11.57;43.71;98905.75;4792152;29;20125;-77
2021/03/08 11:29:56;;;;;;;13.20;7.10;;;;;;;11.63;42.73;98900.06;4803959;29;20049;-79
2021/03/08 11:32:27;;;;;;;10.50;6.93;;;;;;;11.72;42.11;98891.38;4819530;29;20030;-78
2021/03/08 11:34:54;;;;;;;8.65;5.72;;;;;;;11.80;42.04;98893.44;4797100;29;20054;-78
2021/03/08 11:37:22;;;;;;;9.27;6.07;;;;;;;11.87;42.15;98885.06;4804526;29;20034;-83
2021/03/08 11:39:50;;;;;;;7.00;5.45;;;;;;;11.94;40.74;98885.50;4803227;29;20038;-79
2021/03/08 11:42:17;;;;;;;9.32;5.40;;;;;;;12.01;41.36;98878.72;4806143;29;20038;-85
2021/03/08 11:44:44;;;;;;;5.63;5.03;;;;;;;12.07;39.60;98875.94;4806952;29;20037;-79
2021/03/08 11:47:10;;;;;;;10.65;5.38;;;;;;;12.14;38.98;98868.34;4806257;29;20153;-79
2021/03/08 11:49:36;;;;;;;7.60;5.93;;;;;;;12.19;39.90;98859.44;4807726;29;20408;-77
2021/03/08 11:52:02;;;;;;;8.65;5.40;;;;;;;12.24;39.87;98854.81;4824426;29;20030;-77
2021/03/08 11:54:28;;;;;;;12.43;5.45;;;;;;;12.29;38.54;98844.00;4817348;29;20066;-81
2021/03/08 11:56:53;;;;;;;6.57;4.47;;;;;;;12.35;37.90;98847.38;4807808;29;20102;-82
2021/03/08 11:59:19;;;;;;;6.93;5.20;;;;;;;12.39;38.97;98835.00;4808159;29;20034;-84
2021/03/08 12:01:44;;;;;;;9.23;4.78;;;;;;;12.46;38.67;98826.56;4807615;29;20461;-84
2021/03/08 12:04:09;;;;;;;7.03;4.95;;;;;;;12.52;37.88;98824.59;4807434;29;20034;-76
2021/03/08 12:06:35;;;;;;;7.80;5.28;;;;;;;12.57;38.16;98817.28;4823596;29;20496;-76
2021/03/08 12:09:01;;;;;;;5.32;3.72;;;;;;;12.63;37.43;98821.44;4823265;29;20051;-76
2021/03/08 12:11:27;;;;;;;9.95;5.30;;;;;;;12.66;38.28;98809.34;4822953;29;20553;-75
2021/03/08 12:13:52;;;;;;;6.53;5.00;;;;;;;12.72;39.00;98805.47;4823481;29;20035;-75
2021/03/08 12:16:17;;;;;;;7.55;4.45;;;;;;;12.80;38.13;98799.41;4823674;29;20065;-75
2021/03/08 12:18:43;;;;;;;6.70;4.65;;;;;;;12.86;37.38;98797.41;4818349;29;20038;-76
2021/03/08 12:21:09;;;;;;;7.88;4.47;;;;;;;12.92;36.53;98795.44;4789285;29;20031;-77
2021/03/08 12:23:34;;;;;;;5.70;3.00;;;;;;;12.98;33.81;98799.63;4789163;29;20482;-77
2021/03/08 12:26:00;;;;;;;3.78;2.95;;;;;;;13.07;33.88;98805.09;4797591;29;20041;-77
2021/03/08 12:28:25;;;;;;;5.38;4.13;;;;;;;13.12;34.25;98792.38;4823534;29;20073;-77
2021/03/08 12:30:52;;;;;;;5.65;4.00;;;;;;;13.18;35.54;98795.72;4823550;29;20608;-77
2021/03/08 12:33:18;;;;;;;5.20;4.07;;;;;;;13.20;35.96;98790.88;4807592;29;20026;-77
2021/03/08 12:35:43;;;;;;;5.85;4.05;;;;;;;13.25;34.94;98782.69;4824108;29;20034;-77
2021/03/08 12:38:09;;;;;;;5.30;3.53;;;;;;;13.31;34.97;98777.25;4824558;29;20026;-77
2021/03/08 12:40:35;;;;;;;4.00;2.72;;;;;;;13.30;32.99;98771.06;4823887;29;20026;-77
2021/03/08 12:43:02;;;;;;;5.63;4.05;;;;;;;13.39;33.02;98771.19;4807517;29;20128;-77
2021/03/08 12:45:27;;;;;;;6.93;3.63;;;;;;;13.42;33.42;98775.97;4807108;29;20102;-77
2021/03/08 12:47:53;;;;;;;7.28;3.92;;;;;;;13.47;33.76;98775.84;4822888;29;20477;-77
2021/03/08 12:50:18;;;;;;;4.75;3.45;;;;;;;13.55;33.23;98782.38;4823529;29;20454;-78
2021/03/08 12:52:44;;;;;;;6.43;3.67;;;;;;;13.55;32.76;98771.63;4806410;29;20158;-76
2021/03/08 12:55:09;;;;;;;5.75;3.80;;;;;;;13.59;33.39;98761.91;4805820;29;20057;-75
2021/03/08 12:57:35;;;;;;;4.30;2.97;;;;;;;13.65;32.29;98765.28;4822747;29;20070;-78
2021/03/08 13:00:03;;;;;;;5.75;3.50;;;;;;;13.66;32.04;98772.22;4806826;29;20045;-78
2021/03/08 13:02:28;;;;;;;6.45;3.45;;;;;;;13.68;31.37;98767.34;4822751;29;20040;-79
2021/03/08 13:04:54;;;;;;;4.15;3.08;;;;;;;13.72;31.94;98771.81;4806574;29;20034;-80
2021/03/08 13:07:19;;;;;;;6.13;3.47;;;;;;;13.78;32.05;98761.75;4806274;29;20027;-83
2021/03/08 13:09:44;;;;;;;5.95;3.47;;;;;;;13.81;31.77;98765.72;4821840;29;20034;-85
2021/03/08 13:12:10;;;;;;;4.88;3.22;;;;;;;13.85;30.30;98770.16;4806765;29;20536;-84
2021/03/08 13:14:35;;;;;;;5.47;3.63;;;;;;;13.87;29.94;98757.22;4806550;29;20119;-83
2021/03/08 13:17:01;;;;;;;4.20;3.17;;;;;;;13.91;29.63;98757.41;4806170;29;20027;-85
2021/03/08 13:19:26;;;;;;;6.53;3.70;;;;;;;13.92;29.67;98756.31;4803260;29;20475;-85
2021/03/08 13:21:52;;;;;;;4.82;3.47;;;;;;;13.91;29.00;98752.84;4803478;29;20034;-86
2021/03/08 13:24:17;;;;;;;5.68;4.05;;;;;;;13.93;29.52;98758.69;4803685;29;20570;-88
2021/03/08 13:26:42;;;;;;;5.28;3.35;;;;;;;13.90;29.07;98756.63;4821187;29;20534;-87
2021/03/08 13:29:08;;;;;;;3.38;3.08;;;;;;;13.92;28.57;98756.31;4806715;29;20030;-86
2021/03/08 13:31:33;;;;;;;5.90;3.47;;;;;;;13.91;29.67;98758.22;4798697;29;20038;-86
2021/03/08 13:33:59;;;;;;;4.90;3.35;;;;;;;13.92;29.53;98751.72;4805655;29;20090;-85
2021/03/08 13:36:24;;;;;;;4.03;3.53;;;;;;;13.93;29.84;98757.91;4804855;29;20034;-86
2021/03/08 13:38:50;;;;;;;7.30;3.63;;;;;;;13.95;29.50;98757.59;4804327;29;20054;-87
2021/03/08 13:41:15;;;;;;;6.63;3.58;;;;;;;13.96;29.46;98761.88;4804778;29;20045;-86
2021/03/08 13:43:40;;;;;;;6.00;3.78;;;;;;;13.95;29.59;98754.91;4805074;29;20038;-86
2021/03/08 13:46:06;;;;;;;5.63;3.38;;;;;;;13.97;29.49;98748.13;4804490;29;20038;-85
2021/03/08 13:48:31;;;;;;;7.93;4.20;;;;;;;13.95;29.42;98749.53;4805645;29;20026;-85
2021/03/08 13:50:57;;;;;;;4.88;3.45;;;;;;;13.95;29.81;98746.84;4815776;29;20027;-81
2021/03/08 13:53:23;;;;;;;6.45;3.95;;;;;;;13.93;30.01;98745.25;4799998;29;634793;-84
2021/03/08 13:55:48;;;;;;;4.72;3.50;;;;;;;13.91;30.31;98739.41;4820728;29;20133;-83
2021/03/08 13:58:14;;;;;;;7.60;4.28;;;;;;;13.92;30.45;98738.28;4810549;29;20507;-79
2021/03/08 14:00:39;;;;;;;5.10;3.80;;;;;;;13.89;30.26;98733.53;4804101;29;20034;-82
2021/03/08 14:03:05;;;;;;;6.40;3.92;;;;;;;13.89;30.98;98730.84;4802268;29;20533;-80
2021/03/08 14:05:30;;;;;;;6.78;4.40;;;;;;;13.87;30.37;98727.66;4805061;29;20481;-79
2021/03/08 14:07:56;;;;;;;8.10;4.35;;;;;;;13.88;29.93;98733.84;4805159;29;20026;-82
2021/03/08 14:10:21;;;;;;;5.60;3.78;;;;;;;13.87;29.68;98724.19;4806064;29;20030;-83
2021/03/08 14:12:47;;;;;;;13.43;10.00;;;;;;;13.86;30.07;98731.44;4820961;29;20156;-82
2021/03/08 14:15:13;;;;;;;7.60;4.22;;;;;;;13.88;30.78;98733.84;4804787;29;20037;-87
2021/03/08 14:17:39;;;;;;;4.85;3.85;;;;;;;13.87;30.58;98730.34;4820844;29;20508;-88
2021/03/08 14:20:08;;;;;;;4.00;3.20;;;;;;;13.86;30.04;98726.06;4802364;29;20069;-83
2021/03/08 14:22:34;;;;;;;4.45;3.42;;;;;;;13.90;30.77;98726.25;4804443;29;20042;-82
2021/03/08 14:25:00;;;;;;;7.45;3.95;;;;;;;13.95;31.26;98726.09;4805475;29;20038;-82
2021/03/08 14:27:26;;;;;;;7.60;3.95;;;;;;;13.92;30.47;98726.75;4805820;29;20117;-81
2021/03/08 14:29:51;;;;;;;4.78;3.75;;;;;;;13.92;31.03;98719.44;4803874;29;20067;-82
2021/03/08 14:32:16;;;;;;;6.10;4.35;;;;;;;13.97;30.52;98720.44;4805321;29;20038;-82
2021/03/08 14:34:44;;;;;;;9.35;6.07;;;;;;;13.98;30.54;98730.88;4805492;29;20034;-79
2021/03/08 14:37:10;;;;;;;7.47;4.82;;;;;;;13.98;30.57;98717.44;4804867;29;20030;-79
2021/03/08 14:39:36;;;;;;;12.60;7.35;;;;;;;13.99;30.23;98713.66;4804747;29;20046;-79
2021/03/08 14:42:02;;;;;;;10.48;6.07;;;;;;;14.00;30.10;98714.44;4821883;29;20485;-78
2021/03/08 14:44:28;;;;;;;18.20;9.38;;;;;;;14.01;30.12;98719.53;4805431;29;20049;-78
2021/03/08 14:46:53;;;;;;;8.82;5.03;;;;;;;14.01;30.19;98713.34;4804722;29;20045;-79
2021/03/08 14:49:19;;;;;;;9.07;5.15;;;;;;;14.01;30.10;98721.41;4804932;29;20022;-77
2021/03/08 14:51:44;;;;;;;7.85;5.55;;;;;;;13.98;29.96;98709.38;4804031;29;20036;-78
2021/03/08 14:54:10;;;;;;;13.50;7.22;;;;;;;13.96;29.97;98711.56;4821496;29;20057;-78
2021/03/08 14:56:35;;;;;;;8.45;6.10;;;;;;;13.88;30.18;98715.03;4821295;29;20030;-78
2021/03/08 14:59:00;;;;;;;13.05;7.50;;;;;;;13.85;30.13;98716.41;4821269;29;20121;-77
2021/03/08 15:01:26;;;;;;;12.40;5.65;;;;;;;13.83;30.50;98718.63;4805146;29;20099;-78
2021/03/08 15:03:51;;;;;;;7.45;6.07;;;;;;;13.79;30.56;98709.56;4819331;29;20042;-86
2021/03/08 15:06:17;;;;;;;8.90;5.72;;;;;;;13.80;30.31;98721.91;4804552;29;20094;-84
2021/03/08 15:08:42;;;;;;;6.45;5.65;;;;;;;13.77;30.45;98717.16;4813346;29;20039;-84
2021/03/08 15:11:08;;;;;;;7.65;5.78;;;;;;;13.74;30.91;98709.69;4791122;29;20505;-80
2021/03/08 15:13:33;;;;;;;10.32;6.40;;;;;;;13.73;31.12;98716.97;4821209;29;20546;-81
2021/03/08 15:15:59;;;;;;;9.35;6.25;;;;;;;13.69;31.71;98709.81;4803351;29;20416;-79
2021/03/08 15:18:24;;;;;;;11.73;7.13;;;;;;;13.65;31.98;98706.94;4804895;29;20034;-80
2021/03/08 15:20:50;;;;;;;16.05;8.07;;;;;;;13.64;31.93;98716.09;4805255;29;20030;-82
2021/03/08 15:23:15;;;;;;;15.10;7.68;;;;;;;13.60;32.16;98712.44;4802293;29;20063;-76
2021/03/08 15:25:41;;;;;;;13.98;7.10;;;;;;;13.56;32.46;98716.81;4825937;29;20103;-85
2021/03/08 15:28:06;;;;;;;15.65;8.93;;;;;;;13.51;33.24;98716.94;4817515;29;20031;-83
2021/03/08 15:30:31;;;;;;;17.70;8.85;;;;;;;13.48;33.12;98721.03;4797650;29;20416;-85
2021/03/08 15:32:57;;;;;;;14.35;8.95;;;;;;;13.42;33.52;98719.56;4797451;29;20038;-86
2021/03/08 15:35:22;;;;;;;11.32;6.90;;;;;;;13.35;33.99;98719.13;4819861;29;20042;-80
2021/03/08 15:37:48;;;;;;;15.77;8.18;;;;;;;13.29;33.74;98710.38;4803887;29;20141;-84
2021/03/08 15:40:14;;;;;;;14.57;7.97;;;;;;;13.22;33.77;98707.31;4809775;29;20040;-82
2021/03/08 15:42:39;;;;;;;18.08;8.90;;;;;;;13.18;34.30;98709.81;4838420;29;20481;-80
2021/03/08 15:45:05;;;;;;;15.32;8.50;;;;;;;13.12;34.39;98708.34;4838459;29;20066;-84
2021/03/08 15:47:31;;;;;;;14.98;8.38;;;;;;;13.06;34.36;98710.34;4834162;29;20043;-77
2021/03/08 15:49:56;;;;;;;14.75;9.95;;;;;;;12.97;34.82;98702.22;4821073;29;20031;-76
2021/03/08 15:52:22;;;;;;;13.52;8.07;;;;;;;12.93;35.17;98709.25;4832486;29;20030;-79
2021/03/08 15:54:47;;;;;;;18.90;9.35;;;;;;;12.86;35.44;98706.19;4797834;29;20133;-79
2021/03/08 15:57:13;;;;;;;18.42;9.55;;;;;;;12.79;35.30;98711.97;4805312;29;20607;-79
2021/03/08 15:59:38;;;;;;;20.98;11.13;;;;;;;12.70;35.59;98710.28;4821525;29;20066;-76
2021/03/08 16:02:05;;;;;;;23.17;12.32;;;;;;;12.63;35.54;98716.81;4805471;29;20416;-82
2021/03/08 16:04:31;;;;;;;16.77;10.60;;;;;;;12.57;36.38;98717.22;4804989;29;20070;-85
2021/03/08 16:06:56;;;;;;;19.40;11.80;;;;;;;12.52;36.60;98714.63;4805137;29;20437;-86
2021/03/08 16:09:21;;;;;;;24.17;12.18;;;;;;;12.45;36.79;98720.38;4804024;29;20031;-79
2021/03/08 16:11:47;;;;;;;21.13;10.98;;;;;;;12.36;36.87;98712.22;4799724;29;20030;-79
2021/03/08 16:14:12;;;;;;;22.73;12.38;;;;;;;12.29;37.09;98714.47;4803400;29;20057;-80
2021/03/08 16:16:38;;;;;;;22.35;12.43;;;;;;;12.24;37.29;98710.03;4803158;29;20055;-79
2021/03/08 16:19:03;;;;;;;27.10;14.40;;;;;;;12.20;37.80;98717.06;4796534;29;20412;-79
2021/03/08 16:21:29;;;;;;;31.75;14.93;;;;;;;12.14;37.99;98716.34;4786392;29;20063;-79
2021/03/08 16:23:54;;;;;;;33.25;16.15;;;;;;;12.06;38.37;98711.66;4802535;29;20038;-79
2021/03/08 16:26:19;;;;;;;36.08;17.17;;;;;;;12.02;38.36;98721.38;4837255;29;20036;-79
2021/03/08 16:28:45;;;;;;;47.47;20.15;;;;;;;11.97;38.52;98727.63;4824625;29;20046;-77
2021/03/08 16:31:10;;;;;;;46.25;18.77;;;;;;;11.90;38.46;98721.00;4807717;29;20037;-77
2021/03/08 16:33:36;;;;;;;39.15;18.95;;;;;;;11.87;38.62;98729.63;4819438;29;20031;-79
2021/03/08 16:36:03;;;;;;;44.58;18.73;;;;;;;11.81;38.72;98735.06;4798522;29;20038;-79
2021/03/08 16:38:30;;;;;;;38.30;18.83;;;;;;;11.76;39.15;98731.69;4801128;29;20564;-79
2021/03/08 16:40:55;;;;;;;36.10;17.73;;;;;;;11.69;39.90;98729.34;4818829;29;20055;-79
2021/03/08 16:43:21;;;;;;;25.17;14.85;;;;;;;11.62;40.25;98737.75;4793551;29;20390;-77
2021/03/08 16:45:46;;;;;;;35.38;17.00;;;;;;;11.57;40.98;98734.34;4807228;29;20037;-79
2021/03/08 16:48:13;;;;;;;24.52;13.73;;;;;;;11.52;41.93;98745.94;4807420;29;20042;-77
2021/03/08 16:50:40;;;;;;;23.30;13.20;;;;;;;11.45;42.52;98753.53;4807177;29;20038;-78
2021/03/08 16:53:06;;;;;;;24.70;13.38;;;;;;;11.42;43.14;98762.16;4823004;29;20034;-78
2021/03/08 16:55:32;;;;;;;23.50;13.77;;;;;;;11.34;44.20;98758.25;4802015;29;20162;-77
2021/03/08 16:57:58;;;;;;;27.27;14.82;;;;;;;11.28;44.92;98764.72;4807371;29;20042;-84
2021/03/08 17:00:24;;;;;;;26.08;12.68;;;;;;;11.25;45.62;98774.13;4808251;29;20042;-78
2021/03/08 17:02:49;;;;;;;21.60;12.25;;;;;;;11.20;46.17;98774.19;4805647;29;20088;-73
2021/03/08 17:05:19;;;;;;;22.83;12.45;;;;;;;11.17;46.76;98786.28;4824126;29;20106;-80
2021/03/08 17:07:45;;;;;;;24.60;12.70;;;;;;;11.12;47.05;98780.19;4815316;29;20041;-81
2021/03/08 17:10:11;;;;;;;25.63;14.60;;;;;;;11.07;48.33;98781.06;4819924;29;20105;-84
2021/03/08 17:12:36;;;;;;;24.15;14.27;;;;;;;11.01;48.52;98788.34;4802147;29;20117;-87
2021/03/08 17:15:04;;;;;;;27.67;15.20;;;;;;;10.95;49.02;98792.16;4792795;29;20109;-87
2021/03/08 17:17:29;;;;;;;25.02;14.57;;;;;;;10.93;49.49;98788.16;4807177;29;20685;-82
2021/03/08 17:19:55;;;;;;;31.40;15.90;;;;;;;10.89;50.25;98793.28;4807257;29;20030;-83
2021/03/08 17:22:20;;;;;;;27.85;15.25;;;;;;;10.85;50.57;98792.25;4806380;29;20493;-87
2021/03/08 17:24:46;;;;;;;30.90;16.45;;;;;;;10.82;50.44;98798.97;4789176;29;20099;-93
2021/03/08 17:27:12;;;;;;;32.58;15.38;;;;;;;10.77;50.78;98798.22;4802402;29;20031;-93
2021/03/08 17:29:39;;;;;;;30.70;16.38;;;;;;;10.76;51.59;98801.97;4802752;29;20586;-93
2021/03/08 17:32:05;;;;;;;27.35;17.05;;;;;;;10.72;52.06;98805.22;4819062;29;20058;-78
2021/03/08 17:34:31;;;;;;;27.80;16.45;;;;;;;10.70;52.41;98809.25;4806932;29;20117;-77
2021/03/08 17:36:57;;;;;;;36.72;20.08;;;;;;;10.69;52.82;98813.00;4805336;29;20592;-77
2021/03/08 17:39:23;;;;;;;34.03;17.20;;;;;;;10.69;52.49;98816.50;4809063;29;20033;-78
2021/03/08 17:41:48;;;;;;;33.38;20.13;;;;;;;10.66;53.26;98817.03;4817102;29;20137;-87
2021/03/08 17:44:14;;;;;;;27.98;15.75;;;;;;;10.66;53.46;98816.25;4807464;29;20091;-85
2021/03/08 17:46:39;;;;;;;27.35;17.10;;;;;;;10.65;53.52;98817.31;4825204;29;20119;-86
2021/03/08 17:49:05;;;;;;;32.88;17.90;;;;;;;10.64;54.02;98813.84;4825174;29;20018;-85
2021/03/08 17:51:30;;;;;;;35.13;16.80;;;;;;;10.63;54.03;98811.47;4825319;29;20038;-85
2021/03/08 17:53:56;;;;;;;29.90;16.02;;;;;;;10.62;54.51;98820.56;4826483;29;20138;-90
2021/03/08 17:56:21;;;;;;;23.02;14.55;;;;;;;10.61;54.29;98818.94;4807085;29;20034;-80